Time;durP1;ratioP1;P1;durP2;ratioP2;P2;SDS_P1;SDS_P2;PMS_P1;PMS_P2;Temp;Humidity;BMP_temperature;BMP_pressure;BME280_temperature;BME280_humidity;BME280_pressure;Samples;Min_cycle;Max_cycle;Signal;HPM_P1;HPM_P2
2024/01/19 00:00:03;;;;;;;11.00;2.70;;;;;;;;;;5098846;28;20226;-59
2024/01/19 00:02:29;;;;;;;5.87;2.60;;;;;;;;;;5098444;28;20205;-59
2024/01/19 00:04:55;;;;;;;4.13;2.37;;;;;;;;;;5098965;28;20171;-58
2024/01/19 00:07:21;;;;;;;4.57;2.90;;;;;;;;;;5097049;28;20346;-58
2024/01/19 00:09:47;;;;;;;5.53;2.37;;;;;;;;;;5109760;28;20328;-59
2024/01/19 00:12:13;;;;;;;4.13;1.63;;;;;;;;;;5091997;28;20450;-56
2024/01/19 00:14:38;;;;;;;8.60;2.30;;;;;;;;;;5109618;28;20211;-58
2024/01/19 00:17:05;;;;;;;4.73;2.60;;;;;;;;;;5110892;28;20254;-58
2024/01/19 00:19:32;;;;;;;4.17;2.37;;;;;;;;;;5112171;28;20171;-59
2024/01/19 00:21:58;;;;;;;6.30;2.40;;;;;;;;;;5092965;28;20273;-59
2024/01/19 00:24:24;;;;;;;7.97;2.30;;;;;;;;;;5110676;28;20258;-59
2024/01/19 00:26:50;;;;;;;4.80;2.13;;;;;;;;;;5094190;28;20184;-57
2024/01/19 00:29:17;;;;;;;5.83;2.20;;;;;;;;;;5091769;28;20190;-58
2024/01/19 00:31:46;;;;;;;9.93;2.67;;;;;;;;;;5093300;28;20410;-58
2024/01/19 00:34:13;;;;;;;2.30;1.80;;;;;;;;;;5093183;28;20171;-59
2024/01/19 00:36:39;;;;;;;9.80;2.93;;;;;;;;;;5111670;28;20236;-59
2024/01/19 00:39:05;;;;;;;3.73;2.30;;;;;;;;;;5111289;28;20179;-59
2024/01/19 00:41:31;;;;;;;5.43;2.37;;;;;;;;;;5092769;28;20207;-57
2024/01/19 00:43:57;;;;;;;3.03;2.13;;;;;;;;;;5094506;28;20319;-57
2024/01/19 00:46:23;;;;;;;3.53;2.07;;;;;;;;;;5094338;28;20178;-58
2024/01/19 00:48:49;;;;;;;5.87;2.40;;;;;;;;;;5094429;28;20171;-58
2024/01/19 00:51:16;;;;;;;8.13;2.10;;;;;;;;;;5095274;28;20178;-58
2024/01/19 00:53:43;;;;;;;4.23;2.47;;;;;;;;;;5112857;28;20163;-57
2024/01/19 00:56:09;;;;;;;3.73;2.20;;;;;;;;;;5112489;28;20171;-59
2024/01/19 00:58:37;;;;;;;3.57;2.20;;;;;;;;;;5094088;28;20554;-58
2024/01/19 01:01:03;;;;;;;2.87;2.00;;;;;;;;;;5094823;28;20186;-58
2024/01/19 01:03:29;;;;;;;4.90;2.23;;;;;;;;;;5093555;28;20803;-58
2024/01/19 01:05:59;;;;;;;4.10;2.63;;;;;;;;;;5095410;28;20273;-57
2024/01/19 01:08:26;;;;;;;3.60;2.07;;;;;;;;;;5094814;28;20168;-59
2024/01/19 01:10:52;;;;;;;3.87;2.47;;;;;;;;;;5112581;28;20172;-59
2024/01/19 01:13:18;;;;;;;4.10;1.77;;;;;;;;;;5113541;28;20171;-60
2024/01/19 01:15:44;;;;;;;4.07;1.80;;;;;;;;;;5095218;28;20175;-59
2024/01/19 01:18:10;;;;;;;2.50;1.80;;;;;;;;;;5094370;28;20167;-57
2024/01/19 01:20:36;;;;;;;3.27;1.57;;;;;;;;;;5112794;28;20294;-59
2024/01/19 01:23:02;;;;;;;2.27;1.70;;;;;;;;;;5094328;28;20628;-58
2024/01/19 01:25:28;;;;;;;1.67;1.50;;;;;;;;;;5094231;28;20167;-58
2024/01/19 01:27:54;;;;;;;2.10;1.23;;;;;;;;;;5111355;28;20181;-58
2024/01/19 01:30:20;;;;;;;2.07;1.20;;;;;;;;;;5093638;28;20254;-58
2024/01/19 01:32:46;;;;;;;2.10;1.47;;;;;;;;;;5114806;28;20400;-58
2024/01/19 01:35:12;;;;;;;5.30;1.90;;;;;;;;;;5096967;28;20194;-58
2024/01/19 01:37:37;;;;;;;2.97;1.50;;;;;;;;;;5097331;28;20171;-58
2024/01/19 01:40:05;;;;;;;2.67;2.03;;;;;;;;;;5097209;28;20186;-59
2024/01/19 01:42:31;;;;;;;8.30;1.77;;;;;;;;;;5115880;28;20211;-56
2024/01/19 01:44:58;;;;;;;4.63;1.53;;;;;;;;;;5097198;28;20220;-55
2024/01/19 01:47:24;;;;;;;9.33;2.07;;;;;;;;;;5097646;28;20205;-58
2024/01/19 01:49:50;;;;;;;3.97;2.00;;;;;;;;;;5098041;28;20531;-57
2024/01/19 01:52:16;;;;;;;3.47;1.90;;;;;;;;;;5097653;28;20174;-59
2024/01/19 01:54:42;;;;;;;7.10;2.23;;;;;;;;;;5098261;28;20167;-59
2024/01/19 01:57:08;;;;;;;4.97;2.10;;;;;;;;;;5098156;28;20175;-59
2024/01/19 01:59:34;;;;;;;4.20;1.97;;;;;;;;;;5097516;28;20534;-57
2024/01/19 02:02:00;;;;;;;3.27;2.33;;;;;;;;;;5113441;28;20190;-60
2024/01/19 02:04:27;;;;;;;4.60;2.40;;;;;;;;;;5097374;28;20225;-58
2024/01/19 02:06:53;;;;;;;2.37;1.70;;;;;;;;;;5116666;28;20198;-58
2024/01/19 02:09:19;;;;;;;3.20;1.63;;;;;;;;;;5096886;28;20202;-59
2024/01/19 02:11:45;;;;;;;8.70;2.40;;;;;;;;;;5099337;28;20187;-59
2024/01/19 02:14:11;;;;;;;3.87;2.10;;;;;;;;;;5117025;28;20227;-59
2024/01/19 02:16:37;;;;;;;8.40;1.97;;;;;;;;;;5098582;28;20534;-59
2024/01/19 02:19:04;;;;;;;4.60;1.93;;;;;;;;;;5099372;28;20163;-59
2024/01/19 02:21:30;;;;;;;5.90;1.70;;;;;;;;;;5116528;28;20163;-58
2024/01/19 02:23:56;;;;;;;3.77;1.53;;;;;;;;;;5116963;28;20290;-59
2024/01/19 02:26:22;;;;;;;1.53;1.20;;;;;;;;;;5099099;28;20302;-58
2024/01/19 02:28:48;;;;;;;2.63;1.20;;;;;;;;;;5115799;28;20167;-59
2024/01/19 02:31:14;;;;;;;3.47;1.20;;;;;;;;;;5099315;28;20168;-59
2024/01/19 02:33:40;;;;;;;3.77;1.43;;;;;;;;;;5097221;28;20287;-59
2024/01/19 02:36:06;;;;;;;2.33;1.53;;;;;;;;;;5096323;28;20275;-59
2024/01/19 02:38:32;;;;;;;1.83;1.30;;;;;;;;;;5095821;28;20530;-58
2024/01/19 02:40:58;;;;;;;1.80;1.23;;;;;;;;;;5097074;28;20182;-57
2024/01/19 02:43:24;;;;;;;3.10;1.27;;;;;;;;;;5096035;28;20211;-56
2024/01/19 02:45:50;;;;;;;2.10;1.27;;;;;;;;;;5095923;28;20174;-55
2024/01/19 02:48:16;;;;;;;8.10;1.77;;;;;;;;;;5113805;28;20450;-57
2024/01/19 02:50:42;;;;;;;3.97;1.20;;;;;;;;;;5096691;28;20573;-57
2024/01/19 02:53:08;;;;;;;3.27;1.97;;;;;;;;;;5096849;28;20179;-59
2024/01/19 02:55:34;;;;;;;3.27;1.30;;;;;;;;;;5113856;28;20616;-55
2024/01/19 02:58:00;;;;;;;3.10;1.27;;;;;;;;;;5094481;28;20542;-58
2024/01/19 03:00:26;;;;;;;15.33;6.13;;;;;;;;;;5095308;28;20171;-59
2024/01/19 03:02:52;;;;;;;2.60;1.27;;;;;;;;;;5096661;28;20596;-60
2024/01/19 03:05:19;;;;;;;1.60;1.20;;;;;;;;;;5114436;28;20168;-58
2024/01/19 03:07:45;;;;;;;3.53;1.20;;;;;;;;;;5095172;28;20169;-58
2024/01/19 03:10:11;;;;;;;7.03;2.33;;;;;;;;;;5098900;28;20294;-57
2024/01/19 03:12:37;;;;;;;3.63;1.10;;;;;;;;;;5115735;28;20555;-58
2024/01/19 03:15:03;;;;;;;2.27;1.13;;;;;;;;;;5115121;28;20484;-57
2024/01/19 03:17:29;;;;;;;8.53;1.50;;;;;;;;;;5097781;28;20262;-58
2024/01/19 03:19:55;;;;;;;3.73;1.23;;;;;;;;;;5097625;28;20168;-57
2024/01/19 03:22:21;;;;;;;4.47;1.43;;;;;;;;;;5096382;28;20401;-59
2024/01/19 03:24:47;;;;;;;5.63;1.30;;;;;;;;;;5115457;28;20199;-58
2024/01/19 03:27:14;;;;;;;5.23;1.17;;;;;;;;;;5096807;28;20361;-56
2024/01/19 03:29:40;;;;;;;3.07;1.23;;;;;;;;;;5113981;28;20155;-59
2024/01/19 03:32:06;;;;;;;3.77;1.10;;;;;;;;;;5115306;28;20249;-58
2024/01/19 03:34:32;;;;;;;5.07;1.13;;;;;;;;;;5097763;28;20167;-59
2024/01/19 03:37:03;;;;;;;5.40;1.20;;;;;;;;;;5097399;28;20167;-56
2024/01/19 03:39:29;;;;;;;5.27;1.53;;;;;;;;;;5095691;28;20167;-57
2024/01/19 03:41:55;;;;;;;3.47;1.30;;;;;;;;;;5095172;28;20182;-58
2024/01/19 03:44:23;;;;;;;4.20;1.53;;;;;;;;;;5113519;28;20199;-59
2024/01/19 03:46:49;;;;;;;4.07;1.23;;;;;;;;;;5096131;28;20371;-59
2024/01/19 03:49:15;;;;;;;7.90;1.40;;;;;;;;;;5114368;28;20245;-58
2024/01/19 03:52:00;;;;;;;3.17;1.20;;;;;;;;;;5114378;28;20520;-58
2024/01/19 03:54:26;;;;;;;4.83;1.37;;;;;;;;;;5093578;28;20259;-58
2024/01/19 03:56:53;;;;;;;12.03;1.77;;;;;;;;;;5094561;28;20190;-58
2024/01/19 03:59:19;;;;;;;2.80;1.53;;;;;;;;;;5095229;28;20569;-59
2024/01/19 04:01:45;;;;;;;6.53;1.30;;;;;;;;;;5113737;28;20171;-59
2024/01/19 04:04:11;;;;;;;3.07;0.87;;;;;;;;;;5095735;28;20199;-60
2024/01/19 04:06:36;;;;;;;4.00;1.20;;;;;;;;;;5113230;28;20283;-59
2024/01/19 04:09:03;;;;;;;2.73;1.20;;;;;;;;;;5094741;28;20201;-59
2024/01/19 04:11:29;;;;;;;4.00;1.37;;;;;;;;;;5095553;28;20176;-59
2024/01/19 04:13:55;;;;;;;1.93;0.73;;;;;;;;;;5091825;28;20293;-59
2024/01/19 04:16:21;;;;;;;2.20;0.90;;;;;;;;;;5093972;28;20233;-59
2024/01/19 04:18:47;;;;;;;4.13;1.17;;;;;;;;;;5091934;28;20187;-59
2024/01/19 04:21:13;;;;;;;1.87;0.70;;;;;;;;;;5091496;28;20172;-59
2024/01/19 04:23:40;;;;;;;5.60;1.37;;;;;;;;;;5091200;28;20278;-57
2024/01/19 04:26:06;;;;;;;2.50;0.93;;;;;;;;;;5092601;28;20164;-59
2024/01/19 04:28:32;;;;;;;4.37;0.97;;;;;;;;;;5091073;28;20517;-58
2024/01/19 04:30:58;;;;;;;4.97;1.17;;;;;;;;;;5091077;28;20190;-59
2024/01/19 04:33:24;;;;;;;1.57;1.10;;;;;;;;;;5089830;28;20567;-59
2024/01/19 04:35:50;;;;;;;3.37;1.00;;;;;;;;;;5088124;28;20211;-59
2024/01/19 04:38:15;;;;;;;2.07;1.20;;;;;;;;;;5087776;28;20307;-60
2024/01/19 04:40:41;;;;;;;3.27;1.27;;;;;;;;;;5088140;28;20367;-59
2024/01/19 04:43:07;;;;;;;1.87;1.10;;;;;;;;;;5087969;28;20316;-58
2024/01/19 04:45:58;;;;;;;1.47;0.83;;;;;;;;;;5093539;28;20174;-59
2024/01/19 04:48:24;;;;;;;13.20;1.23;;;;;;;;;;5090578;28;20194;-57
2024/01/19 04:50:50;;;;;;;6.13;1.40;;;;;;;;;;5089853;28;20262;-58
2024/01/19 04:53:16;;;;;;;3.80;1.20;;;;;;;;;;5090073;28;20237;-59
2024/01/19 04:55:42;;;;;;;4.07;1.43;;;;;;;;;;5090806;28;20548;-56
2024/01/19 04:58:08;;;;;;;3.50;1.30;;;;;;;;;;5089411;28;20673;-58
2024/01/19 05:00:34;;;;;;;7.13;1.27;;;;;;;;;;5089057;28;20215;-59
2024/01/19 05:03:01;;;;;;;4.60;1.47;;;;;;;;;;5087159;28;20211;-56
2024/01/19 05:05:27;;;;;;;3.80;1.73;;;;;;;;;;5086944;28;20365;-58
2024/01/19 05:07:53;;;;;;;3.33;1.17;;;;;;;;;;5087569;28;20451;-58
2024/01/19 05:10:19;;;;;;;1.67;0.90;;;;;;;;;;5088121;28;20609;-54
2024/01/19 05:12:45;;;;;;;1.07;0.83;;;;;;;;;;5088520;28;20180;-59
2024/01/19 05:15:11;;;;;;;1.60;1.30;;;;;;;;;;5087050;28;20231;-59
2024/01/19 05:17:36;;;;;;;5.20;1.50;;;;;;;;;;5088412;28;20207;-59
2024/01/19 05:20:02;;;;;;;2.13;1.00;;;;;;;;;;5088706;28;20199;-59
2024/01/19 05:22:28;;;;;;;3.40;0.90;;;;;;;;;;5087288;28;20211;-59
2024/01/19 05:24:55;;;;;;;1.63;0.97;;;;;;;;;;5086905;28;20175;-58
2024/01/19 05:27:21;;;;;;;2.30;1.03;;;;;;;;;;5088442;28;20564;-58
2024/01/19 05:29:47;;;;;;;2.57;1.27;;;;;;;;;;5087370;28;20654;-58
2024/01/19 05:32:13;;;;;;;0.90;0.90;;;;;;;;;;5088069;28;20176;-57
2024/01/19 05:34:39;;;;;;;3.50;0.87;;;;;;;;;;5087807;28;20216;-59
2024/01/19 05:37:05;;;;;;;0.70;0.70;;;;;;;;;;5088505;28;20229;-59
2024/01/19 05:39:31;;;;;;;2.30;1.37;;;;;;;;;;5087677;28;20179;-59
2024/01/19 05:41:57;;;;;;;4.17;1.03;;;;;;;;;;5090382;28;20171;-58
2024/01/19 05:44:23;;;;;;;4.10;1.33;;;;;;;;;;5090198;28;20315;-57
2024/01/19 05:46:49;;;;;;;4.33;1.37;;;;;;;;;;5089423;28;20349;-58
2024/01/19 05:49:15;;;;;;;1.20;0.97;;;;;;;;;;5089205;28;20446;-59
2024/01/19 05:51:43;;;;;;;2.43;0.87;;;;;;;;;;5088581;28;20350;-57
2024/01/19 05:54:09;;;;;;;5.00;1.03;;;;;;;;;;5088247;28;20212;-57
2024/01/19 05:56:35;;;;;;;4.97;1.07;;;;;;;;;;5089011;28;20215;-56
2024/01/19 05:59:02;;;;;;;5.70;1.33;;;;;;;;;;5088028;28;20179;-59
2024/01/19 06:01:28;;;;;;;1.83;0.80;;;;;;;;;;5087589;28;20620;-58
2024/01/19 06:03:53;;;;;;;9.07;1.30;;;;;;;;;;5085545;28;20505;-58
2024/01/19 06:06:19;;;;;;;4.00;1.10;;;;;;;;;;5085251;28;20171;-59
2024/01/19 06:08:45;;;;;;;5.00;1.40;;;;;;;;;;5087138;28;20179;-59
2024/01/19 06:11:11;;;;;;;2.73;0.90;;;;;;;;;;5087612;28;20168;-59
2024/01/19 06:13:41;;;;;;;2.23;0.87;;;;;;;;;;5090143;28;20284;-57
2024/01/19 06:16:07;;;;;;;5.10;1.47;;;;;;;;;;5089788;28;20193;-59
2024/01/19 06:18:34;;;;;;;4.80;0.97;;;;;;;;;;5092378;28;20175;-59
2024/01/19 06:21:00;;;;;;;1.63;1.20;;;;;;;;;;5112645;28;20322;-58
2024/01/19 06:23:27;;;;;;;4.97;1.10;;;;;;;;;;5095470;28;20218;-59
2024/01/19 06:25:53;;;;;;;1.33;1.07;;;;;;;;;;5095979;28;20175;-59
2024/01/19 06:28:19;;;;;;;3.23;1.30;;;;;;;;;;5096343;28;20167;-58
2024/01/19 06:30:45;;;;;;;3.57;0.93;;;;;;;;;;5094467;28;20172;-59
2024/01/19 06:33:11;;;;;;;2.67;1.07;;;;;;;;;;5094578;28;20194;-59
2024/01/19 06:35:37;;;;;;;2.73;1.30;;;;;;;;;;5110852;28;20167;-57
2024/01/19 06:38:07;;;;;;;1.57;0.90;;;;;;;;;;5092867;28;20178;-59
2024/01/19 06:40:33;;;;;;;2.17;0.90;;;;;;;;;;5093978;28;20176;-58
2024/01/19 06:42:59;;;;;;;2.07;1.13;;;;;;;;;;5093583;28;20296;-59
2024/01/19 06:45:25;;;;;;;2.20;0.93;;;;;;;;;;5093384;28;20328;-58
2024/01/19 06:47:51;;;;;;;2.80;1.00;;;;;;;;;;5090473;28;20179;-59
2024/01/19 06:50:17;;;;;;;1.77;0.90;;;;;;;;;;5107938;28;20320;-58
2024/01/19 06:52:43;;;;;;;2.07;0.73;;;;;;;;;;5105844;28;20378;-58
2024/01/19 06:55:10;;;;;;;2.57;0.63;;;;;;;;;;5086555;28;20175;-58
2024/01/19 06:57:36;;;;;;;0.77;0.67;;;;;;;;;;5086611;28;20351;-56
2024/01/19 07:00:03;;;;;;;5.10;1.20;;;;;;;;;;5086570;28;20270;-59
2024/01/19 07:02:29;;;;;;;1.30;0.80;;;;;;;;;;5086334;28;20171;-59
2024/01/19 07:04:55;;;;;;;0.97;0.60;;;;;;;;;;5086920;28;20172;-56
2024/01/19 07:07:22;;;;;;;1.77;1.00;;;;;;;;;;5086930;28;20194;-59
2024/01/19 07:09:47;;;;;;;1.80;1.13;;;;;;;;;;5088098;28;20303;-57
2024/01/19 07:12:16;;;;;;;2.00;0.93;;;;;;;;;;5089746;28;20225;-59
2024/01/19 07:14:42;;;;;;;4.10;1.00;;;;;;;;;;5106685;28;20262;-56
2024/01/19 07:17:08;;;;;;;2.30;1.30;;;;;;;;;;5089126;28;20434;-59
2024/01/19 07:19:35;;;;;;;2.50;1.10;;;;;;;;;;5089197;28;20391;-58
2024/01/19 07:22:01;;;;;;;3.27;0.90;;;;;;;;;;5087970;28;20401;-57
2024/01/19 07:24:32;;;;;;;1.37;1.00;;;;;;;;;;5106818;28;20444;-59
2024/01/19 07:26:58;;;;;;;4.60;0.87;;;;;;;;;;5107103;28;20732;-59
2024/01/19 07:29:24;;;;;;;2.57;1.37;;;;;;;;;;5088275;28;20243;-58
2024/01/19 07:31:50;;;;;;;3.37;1.57;;;;;;;;;;5106546;28;20171;-59
2024/01/19 07:34:16;;;;;;;5.83;1.53;;;;;;;;;;5091315;28;20388;-57
2024/01/19 07:36:44;;;;;;;4.37;1.33;;;;;;;;;;5108670;28;20170;-55
2024/01/19 07:39:10;;;;;;;3.50;1.03;;;;;;;;;;5107154;28;20214;-58
2024/01/19 07:41:36;;;;;;;3.17;1.37;;;;;;;;;;5107597;28;20195;-59
2024/01/19 07:44:02;;;;;;;1.47;1.10;;;;;;;;;;5088300;28;20199;-59
2024/01/19 07:46:28;;;;;;;3.03;1.30;;;;;;;;;;5089118;28;20237;-58
2024/01/19 07:48:54;;;;;;;1.63;0.80;;;;;;;;;;5106149;28;20236;-57
2024/01/19 07:51:21;;;;;;;2.33;1.50;;;;;;;;;;5087397;28;20164;-58
2024/01/19 07:53:47;;;;;;;4.03;1.00;;;;;;;;;;5088935;28;20277;-59
2024/01/19 07:56:13;;;;;;;6.63;1.77;;;;;;;;;;5090912;28;20457;-58
2024/01/19 07:58:42;;;;;;;3.67;1.30;;;;;;;;;;5090604;28;20565;-59
2024/01/19 08:01:08;;;;;;;4.47;1.80;;;;;;;;;;5091325;28;20167;-59
2024/01/19 08:03:34;;;;;;;4.33;1.20;;;;;;;;;;5090113;28;20198;-58
2024/01/19 08:06:00;;;;;;;4.00;1.50;;;;;;;;;;5086589;28;20171;-59
2024/01/19 08:08:26;;;;;;;3.97;1.37;;;;;;;;;;5103021;28;20175;-59
2024/01/19 08:10:52;;;;;;;4.67;1.37;;;;;;;;;;5084573;28;20180;-59
2024/01/19 08:13:18;;;;;;;2.57;1.57;;;;;;;;;;5083608;28;20287;-58
2024/01/19 08:15:44;;;;;;;6.33;1.37;;;;;;;;;;5081874;28;20215;-58
2024/01/19 08:18:10;;;;;;;4.40;1.83;;;;;;;;;;5084999;28;20344;-59
2024/01/19 08:20:36;;;;;;;3.50;1.93;;;;;;;;;;5086946;28;20509;-58
2024/01/19 08:23:02;;;;;;;4.77;1.70;;;;;;;;;;5088258;28;20199;-58
2024/01/19 08:25:28;;;;;;;6.73;1.40;;;;;;;;;;5086670;28;20176;-58
2024/01/19 08:27:55;;;;;;;3.80;1.30;;;;;;;;;;5086243;28;20175;-59
2024/01/19 08:30:21;;;;;;;5.97;1.57;;;;;;;;;;5089738;28;20535;-58
2024/01/19 08:32:47;;;;;;;3.80;1.43;;;;;;;;;;5088359;28;20187;-59
2024/01/19 08:35:13;;;;;;;6.47;2.37;;;;;;;;;;5085861;28;20333;-58
2024/01/19 08:37:40;;;;;;;4.40;1.80;;;;;;;;;;5102171;28;20278;-56
2024/01/19 08:40:07;;;;;;;3.40;1.20;;;;;;;;;;5102931;28;20266;-57
2024/01/19 08:42:33;;;;;;;5.33;1.67;;;;;;;;;;5102688;28;20275;-57
2024/01/19 08:44:59;;;;;;;1.47;1.30;;;;;;;;;;5085755;28;20240;-58
2024/01/19 08:47:25;;;;;;;2.07;1.50;;;;;;;;;;5104062;28;20159;-56
2024/01/19 08:49:51;;;;;;;4.10;1.53;;;;;;;;;;5105902;28;20167;-58
2024/01/19 08:52:17;;;;;;;6.57;2.17;;;;;;;;;;5087132;28;20683;-58
2024/01/19 08:54:43;;;;;;;7.57;1.43;;;;;;;;;;5106888;28;20207;-58
2024/01/19 08:57:09;;;;;;;3.73;1.53;;;;;;;;;;5088820;28;20179;-58
2024/01/19 08:59:35;;;;;;;2.43;1.27;;;;;;;;;;5087976;28;20174;-59
2024/01/19 09:02:01;;;;;;;4.40;1.57;;;;;;;;;;5087903;28;20277;-59
2024/01/19 09:04:27;;;;;;;5.90;1.83;;;;;;;;;;5087496;28;20199;-58
2024/01/19 09:06:55;;;;;;;4.13;1.37;;;;;;;;;;5087926;28;20224;-59
2024/01/19 09:09:21;;;;;;;8.20;1.57;;;;;;;;;;5085574;28;20488;-59
2024/01/19 09:11:47;;;;;;;8.33;1.00;;;;;;;;;;5103904;28;20251;-59
2024/01/19 09:14:15;;;;;;;5.03;1.47;;;;;;;;;;5078628;28;20232;-58
2024/01/19 09:16:46;;;;;;;7.80;1.30;;;;;;;;;;5083048;28;20270;-59
2024/01/19 09:19:12;;;;;;;3.23;1.83;;;;;;;;;;5083964;28;20547;-58
2024/01/19 09:21:45;;;;;;;5.33;1.63;;;;;;;;;;5088512;28;20205;-59
2024/01/19 09:24:14;;;;;;;8.03;1.67;;;;;;;;;;5088427;28;20706;-58
2024/01/19 09:26:40;;;;;;;5.30;1.90;;;;;;;;;;5086784;28;20167;-59
2024/01/19 09:29:08;;;;;;;6.07;1.47;;;;;;;;;;5082285;28;20210;-59
2024/01/19 09:31:40;;;;;;;2.37;1.40;;;;;;;;;;5084956;28;20163;-58
2024/01/19 09:34:06;;;;;;;4.77;2.87;;;;;;;;;;5087884;28;20566;-58
2024/01/19 09:36:32;;;;;;;7.23;1.43;;;;;;;;;;5085849;28;20168;-59
2024/01/19 09:38:58;;;;;;;6.23;2.03;;;;;;;;;;5085091;28;20183;-58
2024/01/19 09:41:30;;;;;;;2.30;1.53;;;;;;;;;;5090969;28;20186;-59
2024/01/19 09:43:58;;;;;;;6.20;2.10;;;;;;;;;;5089221;28;20230;-58
2024/01/19 09:46:28;;;;;;;5.40;1.57;;;;;;;;;;5092238;28;20247;-58
2024/01/19 09:49:11;;;;;;;1.83;0.97;;;;;;;;;;5090634;28;20194;-58
2024/01/19 09:51:57;;;;;;;2.13;1.03;;;;;;;;;;5092367;28;20285;-58
2024/01/19 09:54:29;;;;;;;9.60;1.50;;;;;;;;;;5095214;28;20203;-59
2024/01/19 09:56:55;;;;;;;3.80;1.50;;;;;;;;;;5095230;28;20168;-59
2024/01/19 09:59:22;;;;;;;5.63;1.63;;;;;;;;;;5094844;28;20256;-58
2024/01/19 10:01:50;;;;;;;5.10;1.33;;;;;;;;;;5093418;28;20180;-60
2024/01/19 10:04:17;;;;;;;7.93;1.20;;;;;;;;;;5092482;28;20532;-59
2024/01/19 10:06:44;;;;;;;4.17;1.53;;;;;;;;;;5091646;28;20207;-56
2024/01/19 10:09:10;;;;;;;4.77;1.37;;;;;;;;;;5090605;28;20695;-59
2024/01/19 10:11:38;;;;;;;4.43;1.73;;;;;;;;;;5090303;28;20202;-58
2024/01/19 10:14:04;;;;;;;7.80;1.83;;;;;;;;;;5089723;28;20750;-59
2024/01/19 10:16:32;;;;;;;5.13;1.50;;;;;;;;;;5089168;28;20172;-59
2024/01/19 10:18:59;;;;;;;5.13;2.33;;;;;;;;;;5089926;28;20164;-59
2024/01/19 10:21:29;;;;;;;5.50;1.63;;;;;;;;;;5089838;28;20179;-58
2024/01/19 10:24:09;;;;;;;4.77;1.50;;;;;;;;;;5091679;28;20211;-59
2024/01/19 10:26:36;;;;;;;3.53;1.73;;;;;;;;;;5091015;28;20171;-58
2024/01/19 10:29:15;;;;;;;8.73;1.90;;;;;;;;;;5085664;28;20179;-56
2024/01/19 10:31:42;;;;;;;7.53;2.10;;;;;;;;;;5086972;28;20168;-59
2024/01/19 10:34:17;;;;;;;5.43;1.50;;;;;;;;;;5086081;28;20511;-59
2024/01/19 10:36:44;;;;;;;9.50;2.13;;;;;;;;;;5084396;28;20237;-56
2024/01/19 10:39:20;;;;;;;4.97;1.70;;;;;;;;;;5086176;28;20422;-61
2024/01/19 10:41:46;;;;;;;5.13;1.93;;;;;;;;;;5086923;28;20213;-62
2024/01/19 10:44:14;;;;;;;8.87;2.07;;;;;;;;;;5086140;28;20238;-62
2024/01/19 10:46:40;;;;;;;3.70;1.70;;;;;;;;;;5083774;28;20267;-62
2024/01/19 10:49:07;;;;;;;4.23;1.77;;;;;;;;;;5085000;28;20398;-61
2024/01/19 10:51:44;;;;;;;7.30;2.10;;;;;;;;;;5088873;28;20172;-62
2024/01/19 10:54:15;;;;;;;7.47;1.63;;;;;;;;;;5085513;28;20388;-62
2024/01/19 10:56:42;;;;;;;6.43;2.50;;;;;;;;;;5083929;28;20172;-61
2024/01/19 10:59:12;;;;;;;7.83;2.07;;;;;;;;;;5082178;28;20271;-62
2024/01/19 11:01:39;;;;;;;5.30;2.33;;;;;;;;;;5084473;28;20186;-63
2024/01/19 11:04:09;;;;;;;3.50;1.40;;;;;;;;;;5082579;28;20196;-63
2024/01/19 11:06:37;;;;;;;7.53;2.57;;;;;;;;;;5079747;28;20176;-62
2024/01/19 11:09:05;;;;;;;6.70;1.60;;;;;;;;;;5082144;28;20180;-62
2024/01/19 11:11:31;;;;;;;3.90;1.60;;;;;;;;;;5086509;28;20550;-63
2024/01/19 11:14:00;;;;;;;8.93;2.10;;;;;;;;;;5087156;28;20246;-62
2024/01/19 11:16:26;;;;;;;7.43;1.63;;;;;;;;;;5088931;28;20168;-60
2024/01/19 11:18:53;;;;;;;5.27;2.47;;;;;;;;;;5088103;28;20278;-62
2024/01/19 11:21:19;;;;;;;8.23;1.80;;;;;;;;;;5086563;28;20179;-62
2024/01/19 11:23:46;;;;;;;8.00;1.80;;;;;;;;;;5089809;28;20306;-62
2024/01/19 11:26:20;;;;;;;5.07;1.43;;;;;;;;;;5094756;28;20176;-62
2024/01/19 11:28:51;;;;;;;9.47;2.33;;;;;;;;;;5095722;28;20168;-62
2024/01/19 11:31:25;;;;;;;7.17;1.90;;;;;;;;;;5094020;28;20191;-62
2024/01/19 11:33:53;;;;;;;9.17;1.87;;;;;;;;;;5093960;28;20532;-62
2024/01/19 11:36:41;;;;;;;5.10;1.40;;;;;;;;;;5093425;28;20451;-62
2024/01/19 11:39:10;;;;;;;5.47;1.77;;;;;;;;;;5092764;28;20605;-62
2024/01/19 11:41:36;;;;;;;6.17;1.60;;;;;;;;;;5092795;28;20211;-63
2024/01/19 11:44:06;;;;;;;8.70;1.43;;;;;;;;;;5090375;28;20231;-63
2024/01/19 11:46:45;;;;;;;6.53;1.70;;;;;;;;;;5091772;28;20169;-62
2024/01/19 11:49:34;;;;;;;3.77;1.40;;;;;;;;;;5089652;28;20168;-62
2024/01/19 11:52:01;;;;;;;3.47;1.60;;;;;;;;;;5090911;28;20179;-62
2024/01/19 11:54:32;;;;;;;9.77;1.33;;;;;;;;;;5089646;28;20526;-64
2024/01/19 11:57:17;;;;;;;4.23;1.37;;;;;;;;;;5090881;28;20179;-63
2024/01/19 11:59:43;;;;;;;3.50;1.37;;;;;;;;;;5091095;28;20798;-62
2024/01/19 12:02:20;;;;;;;9.57;1.73;;;;;;;;;;5090777;28;20203;-60
2024/01/19 12:04:47;;;;;;;3.23;1.63;;;;;;;;;;5090983;28;20297;-62
2024/01/19 12:07:20;;;;;;;7.83;1.50;;;;;;;;;;5090924;28;20175;-63
2024/01/19 12:09:47;;;;;;;8.20;2.10;;;;;;;;;;5090449;28;20172;-62
2024/01/19 12:12:12;;;;;;;6.70;1.70;;;;;;;;;;5089612;28;20184;-61
2024/01/19 12:14:38;;;;;;;2.30;1.40;;;;;;;;;;5101106;28;20313;-61
2024/01/19 12:17:05;;;;;;;3.87;0.90;;;;;;;;;;5109498;28;20216;-61
2024/01/19 12:19:31;;;;;;;8.33;1.73;;;;;;;;;;5091607;28;20179;-61
2024/01/19 12:21:57;;;;;;;9.80;1.57;;;;;;;;;;5110269;28;20172;-61
2024/01/19 12:24:24;;;;;;;4.97;1.23;;;;;;;;;;5092239;28;20207;-61
2024/01/19 12:26:51;;;;;;;7.70;1.80;;;;;;;;;;5094541;28;20195;-61
2024/01/19 12:29:32;;;;;;;2.37;1.37;;;;;;;;;;5094544;28;20166;-61
2024/01/19 12:32:10;;;;;;;5.20;1.67;;;;;;;;;;5112275;28;20156;-62
2024/01/19 12:34:37;;;;;;;8.77;1.47;;;;;;;;;;5094011;28;20162;-61
2024/01/19 12:37:03;;;;;;;9.73;1.37;;;;;;;;;;5092533;28;20172;-62
2024/01/19 12:39:29;;;;;;;4.30;1.10;;;;;;;;;;5093440;28;20175;-61
2024/01/19 12:42:03;;;;;;;4.47;1.60;;;;;;;;;;5094467;28;20380;-62
2024/01/19 12:44:29;;;;;;;5.90;1.50;;;;;;;;;;5092880;28;20209;-61
2024/01/19 12:47:01;;;;;;;5.73;1.20;;;;;;;;;;5111330;28;20163;-62
2024/01/19 12:49:27;;;;;;;2.50;1.47;;;;;;;;;;5094347;28;20694;-62
2024/01/19 12:51:53;;;;;;;4.13;1.27;;;;;;;;;;5095018;28;20167;-63
2024/01/19 12:54:21;;;;;;;4.77;1.30;;;;;;;;;;5093961;28;20175;-62
2024/01/19 12:56:48;;;;;;;8.43;1.47;;;;;;;;;;5112362;28;20172;-61
2024/01/19 12:59:21;;;;;;;3.17;1.57;;;;;;;;;;5111127;28;20503;-61
2024/01/19 13:01:48;;;;;;;3.37;1.20;;;;;;;;;;5094501;28;20163;-61
2024/01/19 13:04:15;;;;;;;3.77;1.10;;;;;;;;;;5110968;28;20847;-61
2024/01/19 13:06:43;;;;;;;3.67;1.53;;;;;;;;;;5093267;28;20284;-59
2024/01/19 13:09:14;;;;;;;5.33;1.10;;;;;;;;;;5111521;28;20168;-61
2024/01/19 13:11:41;;;;;;;1.50;0.93;;;;;;;;;;5093235;28;20176;-61
2024/01/19 13:14:07;;;;;;;2.40;1.27;;;;;;;;;;5087373;28;20247;-61
2024/01/19 13:16:50;;;;;;;2.87;1.10;;;;;;;;;;5090114;28;20167;-61
2024/01/19 13:19:18;;;;;;;2.27;0.97;;;;;;;;;;5088170;28;20172;-60
2024/01/19 13:21:44;;;;;;;5.27;1.37;;;;;;;;;;5088280;28;20183;-61
2024/01/19 13:24:10;;;;;;;2.83;1.23;;;;;;;;;;5087196;28;20211;-61
2024/01/19 13:26:36;;;;;;;2.87;1.20;;;;;;;;;;5086970;28;20186;-62
2024/01/19 13:29:02;;;;;;;8.13;2.50;;;;;;;;;;5095607;28;20777;-61
2024/01/19 13:31:28;;;;;;;7.03;1.63;;;;;;;;;;5095664;28;20630;-62
2024/01/19 13:33:54;;;;;;;6.77;1.93;;;;;;;;;;5096597;28;20554;-61
2024/01/19 13:36:20;;;;;;;8.83;1.60;;;;;;;;;;5096789;28;20548;-61
2024/01/19 13:38:47;;;;;;;5.07;1.97;;;;;;;;;;5098008;28;20253;-62
2024/01/19 13:41:14;;;;;;;3.47;1.70;;;;;;;;;;5097046;28;20250;-62
2024/01/19 13:43:44;;;;;;;3.87;2.10;;;;;;;;;;5096759;28;20607;-62
2024/01/19 13:46:11;;;;;;;4.63;2.20;;;;;;;;;;5096558;28;20172;-62
2024/01/19 13:48:37;;;;;;;5.57;1.83;;;;;;;;;;5097388;28;20665;-62
2024/01/19 13:51:03;;;;;;;12.20;2.37;;;;;;;;;;5095439;28;20735;-62
2024/01/19 13:53:29;;;;;;;10.53;1.93;;;;;;;;;;5096851;28;20167;-61
2024/01/19 13:55:55;;;;;;;5.13;1.87;;;;;;;;;;5095599;28;20170;-62
2024/01/19 13:58:21;;;;;;;4.63;2.43;;;;;;;;;;5093869;28;20170;-62
2024/01/19 14:00:48;;;;;;;14.93;2.70;;;;;;;;;;5096232;28;20178;-59
2024/01/19 14:03:15;;;;;;;13.33;2.50;;;;;;;;;;5091715;28;20208;-62
2024/01/19 14:05:41;;;;;;;5.03;1.87;;;;;;;;;;5088034;28;20248;-61
2024/01/19 14:08:09;;;;;;;8.50;1.93;;;;;;;;;;5089258;28;20434;-62
2024/01/19 14:10:35;;;;;;;6.43;1.83;;;;;;;;;;5088408;28;20160;-62
2024/01/19 14:13:02;;;;;;;8.80;2.03;;;;;;;;;;5088451;28;20228;-62
2024/01/19 14:15:28;;;;;;;8.10;2.07;;;;;;;;;;5107084;28;20226;-62
2024/01/19 14:17:54;;;;;;;6.10;2.27;;;;;;;;;;5108804;28;20180;-62
2024/01/19 14:20:20;;;;;;;8.57;2.50;;;;;;;;;;5108847;28;20174;-62
2024/01/19 14:22:46;;;;;;;6.10;1.73;;;;;;;;;;5090931;28;20299;-61
2024/01/19 14:25:12;;;;;;;9.10;2.43;;;;;;;;;;5090952;28;20384;-61
2024/01/19 14:27:39;;;;;;;5.17;1.90;;;;;;;;;;5089847;28;20171;-62
2024/01/19 14:30:05;;;;;;;9.50;2.17;;;;;;;;;;5088713;28;20433;-62
2024/01/19 14:32:31;;;;;;;12.67;2.50;;;;;;;;;;5087590;28;20174;-62
2024/01/19 14:34:57;;;;;;;3.83;2.40;;;;;;;;;;5087522;28;20163;-62
2024/01/19 14:37:23;;;;;;;6.47;2.23;;;;;;;;;;5086642;28;20384;-62
2024/01/19 14:39:49;;;;;;;11.30;2.10;;;;;;;;;;5084499;28;20658;-62
2024/01/19 14:42:17;;;;;;;7.17;1.80;;;;;;;;;;5104101;28;20770;-62